sensor_id;sensor_type;location;lat;lon;timestamp;temperature;humidity
75010;DHT22;63564;46.840;18.336;2022-11-20T00:01:49;2.32;96.01
75010;DHT22;63564;46.840;18.336;2022-11-20T00:04:50;2.36;96.34
75010;DHT22;63564;46.840;18.336;2022-11-20T00:07:50;2.22;96.24
75010;DHT22;63564;46.840;18.336;2022-11-20T00:10:51;2.30;96.02
75010;DHT22;63564;46.840;18.336;2022-11-20T00:13:55;2.28;95.95
75010;DHT22;63564;46.840;18.336;2022-11-20T00:16:57;2.28;96.37
75010;DHT22;63564;46.840;18.336;2022-11-20T00:19:57;2.18;96.06
75010;DHT22;63564;46.840;18.336;2022-11-20T00:22:57;2.22;96.00
75010;DHT22;63564;46.840;18.336;2022-11-20T00:26:03;2.24;95.88
75010;DHT22;63564;46.840;18.336;2022-11-20T00:29:03;2.25;95.97
75010;DHT22;63564;46.840;18.336;2022-11-20T00:32:04;2.14;95.71
75010;DHT22;63564;46.840;18.336;2022-11-20T00:35:04;2.15;96.06
75010;DHT22;63564;46.840;18.336;2022-11-20T00:38:05;2.14;96.43
75010;DHT22;63564;46.840;18.336;2022-11-20T00:41:08;2.19;94.85
75010;DHT22;63564;46.840;18.336;2022-11-20T00:44:09;2.14;95.21
75010;DHT22;63564;46.840;18.336;2022-11-20T00:47:09;2.24;96.43
75010;DHT22;63564;46.840;18.336;2022-11-20T00:50:09;2.12;95.51
75010;DHT22;63564;46.840;18.336;2022-11-20T00:53:10;2.15;95.73
75010;DHT22;63564;46.840;18.336;2022-11-20T00:56:12;2.05;95.74
75010;DHT22;63564;46.840;18.336;2022-11-20T00:59:13;2.12;96.77
75010;DHT22;63564;46.840;18.336;2022-11-20T01:02:13;2.11;95.31
75010;DHT22;63564;46.840;18.336;2022-11-20T01:05:16;2.05;96.02
75010;DHT22;63564;46.840;18.336;2022-11-20T01:08:16;2.14;95.55
75010;DHT22;63564;46.840;18.336;2022-11-20T01:11:22;2.04;95.38
75010;DHT22;63564;46.840;18.336;2022-11-20T01:14:23;2.08;95.06
75010;DHT22;63564;46.840;18.336;2022-11-20T01:17:23;1.88;95.06
75010;DHT22;63564;46.840;18.336;2022-11-20T01:20:23;1.94;94.77
75010;DHT22;63564;46.840;18.336;2022-11-20T01:23:24;1.82;95.06
75010;DHT22;63564;46.840;18.336;2022-11-20T01:26:30;1.85;95.32
75010;DHT22;63564;46.840;18.336;2022-11-20T01:29:31;1.91;95.13
75010;DHT22;63564;46.840;18.336;2022-11-20T01:32:31;1.89;95.34
75010;DHT22;63564;46.840;18.336;2022-11-20T01:35:31;1.84;95.45
75010;DHT22;63564;46.840;18.336;2022-11-20T01:38:32;1.84;95.67
75010;DHT22;63564;46.840;18.336;2022-11-20T01:41:34;1.82;95.47
75010;DHT22;63564;46.840;18.336;2022-11-20T01:44:58;1.81;95.67
75010;DHT22;63564;46.840;18.336;2022-11-20T01:48:00;2.11;94.27
75010;DHT22;63564;46.840;18.336;2022-11-20T01:51:02;2.04;94.68
75010;DHT22;63564;46.840;18.336;2022-11-20T01:54:06;2.04;94.49
75010;DHT22;63564;46.840;18.336;2022-11-20T01:57:10;2.15;92.91
75010;DHT22;63564;46.840;18.336;2022-11-20T02:00:14;2.16;93.01
75010;DHT22;63564;46.840;18.336;2022-11-20T02:03:17;2.09;93.37
75010;DHT22;63564;46.840;18.336;2022-11-20T02:06:25;1.99;93.55
75010;DHT22;63564;46.840;18.336;2022-11-20T02:09:26;1.95;93.82
75010;DHT22;63564;46.840;18.336;2022-11-20T02:12:27;1.93;94.61
75010;DHT22;63564;46.840;18.336;2022-11-20T02:15:46;1.88;94.33
75010;DHT22;63564;46.840;18.336;2022-11-20T02:18:47;1.81;94.83
75010;DHT22;63564;46.840;18.336;2022-11-20T02:22:19;1.78;95.08
75010;DHT22;63564;46.840;18.336;2022-11-20T02:25:23;1.82;95.15
75010;DHT22;63564;46.840;18.336;2022-11-20T02:28:24;1.74;94.82
75010;DHT22;63564;46.840;18.336;2022-11-20T02:31:24;1.74;95.39
75010;DHT22;63564;46.840;18.336;2022-11-20T02:34:25;1.81;95.68
75010;DHT22;63564;46.840;18.336;2022-11-20T02:37:30;1.78;94.46
75010;DHT22;63564;46.840;18.336;2022-11-20T02:40:31;1.73;94.75
75010;DHT22;63564;46.840;18.336;2022-11-20T02:43:31;1.70;94.33
75010;DHT22;63564;46.840;18.336;2022-11-20T02:46:32;1.73;95.18
75010;DHT22;63564;46.840;18.336;2022-11-20T02:49:33;1.77;94.66
75010;DHT22;63564;46.840;18.336;2022-11-20T02:52:33;1.80;94.66
75010;DHT22;63564;46.840;18.336;2022-11-20T02:55:34;1.68;94.36
75010;DHT22;63564;46.840;18.336;2022-11-20T02:58:35;1.73;94.92
75010;DHT22;63564;46.840;18.336;2022-11-20T03:01:35;1.68;94.41
75010;DHT22;63564;46.840;18.336;2022-11-20T03:04:35;1.81;94.39
75010;DHT22;63564;46.840;18.336;2022-11-20T03:07:36;1.77;94.53
75010;DHT22;63564;46.840;18.336;2022-11-20T03:10:38;1.77;94.79
75010;DHT22;63564;46.840;18.336;2022-11-20T03:13:38;1.78;94.00
75010;DHT22;63564;46.840;18.336;2022-11-20T03:16:38;1.81;94.68
75010;DHT22;63564;46.840;18.336;2022-11-20T03:19:39;1.77;93.89
75010;DHT22;63564;46.840;18.336;2022-11-20T03:22:39;1.66;94.78
75010;DHT22;63564;46.840;18.336;2022-11-20T03:25:39;1.63;94.51
75010;DHT22;63564;46.840;18.336;2022-11-20T03:28:41;1.81;94.31
75010;DHT22;63564;46.840;18.336;2022-11-20T03:31:42;1.87;94.94
75010;DHT22;63564;46.840;18.336;2022-11-20T03:34:42;1.89;95.34
75010;DHT22;63564;46.840;18.336;2022-11-20T03:37:43;1.70;95.01
75010;DHT22;63564;46.840;18.336;2022-11-20T03:40:43;1.73;94.97
75010;DHT22;63564;46.840;18.336;2022-11-20T03:43:51;1.68;95.16
75010;DHT22;63564;46.840;18.336;2022-11-20T03:46:52;1.68;95.86
75010;DHT22;63564;46.840;18.336;2022-11-20T03:49:52;1.80;94.25
75010;DHT22;63564;46.840;18.336;2022-11-20T03:52:52;1.70;94.34
75010;DHT22;63564;46.840;18.336;2022-11-20T03:55:53;1.77;94.39
75010;DHT22;63564;46.840;18.336;2022-11-20T03:58:53;1.84;94.02
75010;DHT22;63564;46.840;18.336;2022-11-20T04:01:54;1.78;93.18
75010;DHT22;63564;46.840;18.336;2022-11-20T04:04:54;1.73;94.43
75010;DHT22;63564;46.840;18.336;2022-11-20T04:07:54;1.64;95.18
75010;DHT22;63564;46.840;18.336;2022-11-20T04:10:55;1.64;95.73
75010;DHT22;63564;46.840;18.336;2022-11-20T04:13:57;1.64;95.34
75010;DHT22;63564;46.840;18.336;2022-11-20T04:16:58;1.60;95.64
75010;DHT22;63564;46.840;18.336;2022-11-20T04:19:58;1.59;95.85
75010;DHT22;63564;46.840;18.336;2022-11-20T04:22:58;1.60;95.37
75010;DHT22;63564;46.840;18.336;2022-11-20T04:26:08;1.63;94.95
75010;DHT22;63564;46.840;18.336;2022-11-20T04:29:11;1.60;94.89
75010;DHT22;63564;46.840;18.336;2022-11-20T04:32:11;1.60;94.80
75010;DHT22;63564;46.840;18.336;2022-11-20T04:35:12;1.51;94.80
75010;DHT22;63564;46.840;18.336;2022-11-20T04:38:12;1.66;95.39
75010;DHT22;63564;46.840;18.336;2022-11-20T04:41:15;1.64;95.01
75010;DHT22;63564;46.840;18.336;2022-11-20T04:44:16;1.64;95.22
75010;DHT22;63564;46.840;18.336;2022-11-20T04:47:16;1.68;95.47
75010;DHT22;63564;46.840;18.336;2022-11-20T04:50:17;1.67;95.84
75010;DHT22;63564;46.840;18.336;2022-11-20T04:53:17;1.66;95.06
75010;DHT22;63564;46.840;18.336;2022-11-20T04:56:18;1.82;95.54
75010;DHT22;63564;46.840;18.336;2022-11-20T04:59:18;1.81;94.33
75010;DHT22;63564;46.840;18.336;2022-11-20T05:02:19;1.80;93.99
75010;DHT22;63564;46.840;18.336;2022-11-20T05:05:20;1.68;95.03
75010;DHT22;63564;46.840;18.336;2022-11-20T05:08:20;1.67;95.35
75010;DHT22;63564;46.840;18.336;2022-11-20T05:11:21;1.68;95.18
75010;DHT22;63564;46.840;18.336;2022-11-20T05:14:21;1.74;94.88
75010;DHT22;63564;46.840;18.336;2022-11-20T05:17:22;1.64;94.36
75010;DHT22;63564;46.840;18.336;2022-11-20T05:20:22;1.66;95.54
75010;DHT22;63564;46.840;18.336;2022-11-20T05:23:23;1.67;95.04
75010;DHT22;63564;46.840;18.336;2022-11-20T05:26:23;1.75;94.90
75010;DHT22;63564;46.840;18.336;2022-11-20T05:29:24;1.74;94.96
75010;DHT22;63564;46.840;18.336;2022-11-20T05:32:24;1.74;94.43
75010;DHT22;63564;46.840;18.336;2022-11-20T05:35:25;1.84;94.77
75010;DHT22;63564;46.840;18.336;2022-11-20T05:38:25;1.75;95.15
75010;DHT22;63564;46.840;18.336;2022-11-20T05:41:26;1.70;94.15
75010;DHT22;63564;46.840;18.336;2022-11-20T05:44:26;1.66;94.51
75010;DHT22;63564;46.840;18.336;2022-11-20T05:47:28;1.80;94.86
75010;DHT22;63564;46.840;18.336;2022-11-20T05:50:31;1.91;93.21
75010;DHT22;63564;46.840;18.336;2022-11-20T05:53:32;1.68;93.46
75010;DHT22;63564;46.840;18.336;2022-11-20T05:56:33;1.66;93.78
75010;DHT22;63564;46.840;18.336;2022-11-20T05:59:33;1.68;94.41
75010;DHT22;63564;46.840;18.336;2022-11-20T06:02:35;1.77;94.69
75010;DHT22;63564;46.840;18.336;2022-11-20T06:05:36;1.82;94.35
75010;DHT22;63564;46.840;18.336;2022-11-20T06:08:36;1.94;93.95
75010;DHT22;63564;46.840;18.336;2022-11-20T06:11:36;1.84;94.56
75010;DHT22;63564;46.840;18.336;2022-11-20T06:14:37;2.02;95.04
75010;DHT22;63564;46.840;18.336;2022-11-20T06:17:37;2.16;94.05
75010;DHT22;63564;46.840;18.336;2022-11-20T06:20:37;2.11;93.33
75010;DHT22;63564;46.840;18.336;2022-11-20T06:23:38;1.98;94.24
75010;DHT22;63564;46.840;18.336;2022-11-20T06:26:38;2.16;93.70
75010;DHT22;63564;46.840;18.336;2022-11-20T06:29:39;2.08;94.02
75010;DHT22;63564;46.840;18.336;2022-11-20T06:32:39;2.30;92.90
75010;DHT22;63564;46.840;18.336;2022-11-20T06:35:39;2.43;92.31
75010;DHT22;63564;46.840;18.336;2022-11-20T06:38:40;2.47;92.81
75010;DHT22;63564;46.840;18.336;2022-11-20T06:41:41;2.47;92.17
75010;DHT22;63564;46.840;18.336;2022-11-20T06:44:41;2.39;93.18
75010;DHT22;63564;46.840;18.336;2022-11-20T06:47:41;2.64;91.82
75010;DHT22;63564;46.840;18.336;2022-11-20T06:50:41;2.68;92.03
75010;DHT22;63564;46.840;18.336;2022-11-20T06:53:42;2.57;92.81
75010;DHT22;63564;46.840;18.336;2022-11-20T06:56:46;2.83;91.72
75010;DHT22;63564;46.840;18.336;2022-11-20T06:59:47;2.84;91.99
75010;DHT22;63564;46.840;18.336;2022-11-20T07:02:47;3.00;90.65
75010;DHT22;63564;46.840;18.336;2022-11-20T07:05:47;3.07;90.96
75010;DHT22;63564;46.840;18.336;2022-11-20T07:08:50;3.19;90.26
75010;DHT22;63564;46.840;18.336;2022-11-20T07:11:51;3.21;91.02
75010;DHT22;63564;46.840;18.336;2022-11-20T07:14:52;3.12;90.65
75010;DHT22;63564;46.840;18.336;2022-11-20T07:17:52;3.11;92.39
75010;DHT22;63564;46.840;18.336;2022-11-20T07:20:53;3.01;92.75
75010;DHT22;63564;46.840;18.336;2022-11-20T07:23:53;3.22;91.66
75010;DHT22;63564;46.840;18.336;2022-11-20T07:26:53;3.40;90.58
75010;DHT22;63564;46.840;18.336;2022-11-20T07:29:54;3.42;91.06
75010;DHT22;63564;46.840;18.336;2022-11-20T07:32:55;3.38;91.07
75010;DHT22;63564;46.840;18.336;2022-11-20T07:35:58;3.32;92.82
75010;DHT22;63564;46.840;18.336;2022-11-20T07:38:59;3.48;91.29
75010;DHT22;63564;46.840;18.336;2022-11-20T07:41:59;3.56;90.57
75010;DHT22;63564;46.840;18.336;2022-11-20T07:44:59;3.63;90.77
75010;DHT22;63564;46.840;18.336;2022-11-20T07:47:59;3.66;89.92
75010;DHT22;63564;46.840;18.336;2022-11-20T07:51:00;3.53;90.14
75010;DHT22;63564;46.840;18.336;2022-11-20T07:54:00;3.60;90.69
75010;DHT22;63564;46.840;18.336;2022-11-20T07:57:01;3.67;90.68
75010;DHT22;63564;46.840;18.336;2022-11-20T08:00:02;3.70;91.68
75010;DHT22;63564;46.840;18.336;2022-11-20T08:03:04;3.88;90.80
75010;DHT22;63564;46.840;18.336;2022-11-20T08:06:04;3.98;89.12
75010;DHT22;63564;46.840;18.336;2022-11-20T08:09:05;4.04;89.67
75010;DHT22;63564;46.840;18.336;2022-11-20T08:12:06;3.94;91.00
75010;DHT22;63564;46.840;18.336;2022-11-20T08:15:24;4.14;90.59
75010;DHT22;63564;46.840;18.336;2022-11-20T08:18:25;4.41;87.89
75010;DHT22;63564;46.840;18.336;2022-11-20T08:21:25;4.56;87.05
75010;DHT22;63564;46.840;18.336;2022-11-20T08:24:25;4.60;86.86
75010;DHT22;63564;46.840;18.336;2022-11-20T08:27:26;4.50;88.65
75010;DHT22;63564;46.840;18.336;2022-11-20T08:30:27;4.41;90.68
75010;DHT22;63564;46.840;18.336;2022-11-20T08:33:28;4.57;89.51
75010;DHT22;63564;46.840;18.336;2022-11-20T08:36:28;4.74;87.55
75010;DHT22;63564;46.840;18.336;2022-11-20T08:39:29;4.70;87.60
75010;DHT22;63564;46.840;18.336;2022-11-20T08:42:29;4.74;87.67
75010;DHT22;63564;46.840;18.336;2022-11-20T08:45:29;4.69;88.06
75010;DHT22;63564;46.840;18.336;2022-11-20T08:48:30;4.74;86.63
75010;DHT22;63564;46.840;18.336;2022-11-20T08:51:30;4.59;87.62
75010;DHT22;63564;46.840;18.336;2022-11-20T08:54:30;4.43;90.04
75010;DHT22;63564;46.840;18.336;2022-11-20T08:57:35;4.42;89.76
75010;DHT22;63564;46.840;18.336;2022-11-20T09:00:36;4.63;89.08
75010;DHT22;63564;46.840;18.336;2022-11-20T09:03:36;4.49;89.18
75010;DHT22;63564;46.840;18.336;2022-11-20T09:06:37;4.48;89.73
75010;DHT22;63564;46.840;18.336;2022-11-20T09:09:37;4.59;90.95
75010;DHT22;63564;46.840;18.336;2022-11-20T09:12:37;4.84;89.09
75010;DHT22;63564;46.840;18.336;2022-11-20T09:15:37;4.90;89.52
75010;DHT22;63564;46.840;18.336;2022-11-20T09:18:38;4.93;89.20
75010;DHT22;63564;46.840;18.336;2022-11-20T09:21:38;5.08;90.32
75010;DHT22;63564;46.840;18.336;2022-11-20T09:24:39;5.17;88.74
75010;DHT22;63564;46.840;18.336;2022-11-20T09:27:39;5.29;88.65
75010;DHT22;63564;46.840;18.336;2022-11-20T09:30:41;5.28;87.67
75010;DHT22;63564;46.840;18.336;2022-11-20T09:33:41;5.24;89.52
75010;DHT22;63564;46.840;18.336;2022-11-20T09:36:43;5.34;89.36
75010;DHT22;63564;46.840;18.336;2022-11-20T09:39:43;5.36;88.15
75010;DHT22;63564;46.840;18.336;2022-11-20T09:42:55;5.34;89.38
75010;DHT22;63564;46.840;18.336;2022-11-20T09:52:37;5.46;88.97
75010;DHT22;63564;46.840;18.336;2022-11-20T09:55:42;5.53;88.11
75010;DHT22;63564;46.840;18.336;2022-11-20T09:58:45;5.48;89.22
75010;DHT22;63564;46.840;18.336;2022-11-20T10:01:47;5.67;88.74
75010;DHT22;63564;46.840;18.336;2022-11-20T10:04:55;5.74;87.97
75010;DHT22;63564;46.840;18.336;2022-11-20T10:08:19;5.73;88.83
75010;DHT22;63564;46.840;18.336;2022-11-20T10:21:32;6.00;88.28
75010;DHT22;63564;46.840;18.336;2022-11-20T10:24:50;6.03;88.92
75010;DHT22;63564;46.840;18.336;2022-11-20T10:28:10;6.10;87.95
75010;DHT22;63564;46.840;18.336;2022-11-20T10:31:25;6.13;89.23
75010;DHT22;63564;46.840;18.336;2022-11-20T10:37:51;5.97;89.03
75010;DHT22;63564;46.840;18.336;2022-11-20T10:40:55;5.77;88.79
75010;DHT22;63564;46.840;18.336;2022-11-20T10:44:22;6.10;89.64
75010;DHT22;63564;46.840;18.336;2022-11-20T10:47:41;6.14;87.29
75010;DHT22;63564;46.840;18.336;2022-11-20T11:00:44;6.11;89.19
75010;DHT22;63564;46.840;18.336;2022-11-20T11:03:45;6.00;89.54
75010;DHT22;63564;46.840;18.336;2022-11-20T11:06:47;5.91;90.37
75010;DHT22;63564;46.840;18.336;2022-11-20T11:09:57;5.91;89.78
75010;DHT22;63564;46.840;18.336;2022-11-20T11:12:58;6.01;90.01
75010;DHT22;63564;46.840;18.336;2022-11-20T11:15:58;6.01;90.63
75010;DHT22;63564;46.840;18.336;2022-11-20T11:19:06;6.03;89.98
75010;DHT22;63564;46.840;18.336;2022-11-20T11:22:15;6.04;90.95
75010;DHT22;63564;46.840;18.336;2022-11-20T11:25:36;5.94;91.01
75010;DHT22;63564;46.840;18.336;2022-11-20T11:28:36;5.76;90.21
75010;DHT22;63564;46.840;18.336;2022-11-20T11:31:38;5.85;90.96
75010;DHT22;63564;46.840;18.336;2022-11-20T11:34:38;5.97;90.52
75010;DHT22;63564;46.840;18.336;2022-11-20T11:37:39;5.89;90.52
75010;DHT22;63564;46.840;18.336;2022-11-20T11:40:40;6.10;90.00
75010;DHT22;63564;46.840;18.336;2022-11-20T11:43:51;6.29;88.72
75010;DHT22;63564;46.840;18.336;2022-11-20T11:47:37;6.26;88.11
75010;DHT22;63564;46.840;18.336;2022-11-20T11:50:49;6.35;88.52
75010;DHT22;63564;46.840;18.336;2022-11-20T11:53:50;6.36;89.78
75010;DHT22;63564;46.840;18.336;2022-11-20T11:56:50;6.46;88.65
75010;DHT22;63564;46.840;18.336;2022-11-20T12:06:15;6.39;89.92
75010;DHT22;63564;46.840;18.336;2022-11-20T12:09:18;6.41;90.09
75010;DHT22;63564;46.840;18.336;2022-11-20T12:12:24;6.48;90.61
75010;DHT22;63564;46.840;18.336;2022-11-20T12:15:29;6.39;89.73
75010;DHT22;63564;46.840;18.336;2022-11-20T12:18:30;6.17;91.27
75010;DHT22;63564;46.840;18.336;2022-11-20T12:21:39;6.26;89.74
75010;DHT22;63564;46.840;18.336;2022-11-20T12:25:07;6.24;90.27
75010;DHT22;63564;46.840;18.336;2022-11-20T12:31:55;6.32;90.42
75010;DHT22;63564;46.840;18.336;2022-11-20T12:45:28;6.38;91.67
75010;DHT22;63564;46.840;18.336;2022-11-20T12:48:38;6.52;90.33
75010;DHT22;63564;46.840;18.336;2022-11-20T12:55:16;6.34;92.70
75010;DHT22;63564;46.840;18.336;2022-11-20T12:58:52;6.22;93.22
75010;DHT22;63564;46.840;18.336;2022-11-20T13:02:20;6.39;91.64
75010;DHT22;63564;46.840;18.336;2022-11-20T13:08:57;6.69;89.64
75010;DHT22;63564;46.840;18.336;2022-11-20T13:12:08;6.66;90.47
75010;DHT22;63564;46.840;18.336;2022-11-20T13:18:37;6.57;90.68
75010;DHT22;63564;46.840;18.336;2022-11-20T13:21:41;6.48;92.01
75010;DHT22;63564;46.840;18.336;2022-11-20T13:24:50;6.72;90.38
75010;DHT22;63564;46.840;18.336;2022-11-20T13:27:51;6.57;91.06
75010;DHT22;63564;46.840;18.336;2022-11-20T13:30:53;6.53;91.97
75010;DHT22;63564;46.840;18.336;2022-11-20T13:33:55;6.52;91.88
75010;DHT22;63564;46.840;18.336;2022-11-20T13:36:58;6.65;91.52
75010;DHT22;63564;46.840;18.336;2022-11-20T13:43:23;6.79;90.58
75010;DHT22;63564;46.840;18.336;2022-11-20T13:46:43;6.82;91.29
75010;DHT22;63564;46.840;18.336;2022-11-20T13:49:44;6.61;91.38
75010;DHT22;63564;46.840;18.336;2022-11-20T13:56:18;6.52;91.71
75010;DHT22;63564;46.840;18.336;2022-11-20T14:03:20;6.31;91.96
75010;DHT22;63564;46.840;18.336;2022-11-20T14:06:32;6.41;92.51
75010;DHT22;63564;46.840;18.336;2022-11-20T14:09:35;6.39;92.29
75010;DHT22;63564;46.840;18.336;2022-11-20T14:12:35;6.35;92.83
75010;DHT22;63564;46.840;18.336;2022-11-20T14:15:36;6.24;93.09
75010;DHT22;63564;46.840;18.336;2022-11-20T14:18:40;6.17;93.58
75010;DHT22;63564;46.840;18.336;2022-11-20T14:21:40;6.08;93.99
75010;DHT22;63564;46.840;18.336;2022-11-20T14:24:41;6.15;93.52
75010;DHT22;63564;46.840;18.336;2022-11-20T14:27:43;6.08;94.26
75010;DHT22;63564;46.840;18.336;2022-11-20T14:30:46;6.13;93.75
75010;DHT22;63564;46.840;18.336;2022-11-20T14:33:47;6.01;94.35
75010;DHT22;63564;46.840;18.336;2022-11-20T14:36:48;6.04;93.87
75010;DHT22;63564;46.840;18.336;2022-11-20T14:39:53;6.04;94.00
75010;DHT22;63564;46.840;18.336;2022-11-20T14:42:54;5.91;94.77
75010;DHT22;63564;46.840;18.336;2022-11-20T14:46:13;5.70;96.04
75010;DHT22;63564;46.840;18.336;2022-11-20T14:49:14;5.62;96.24
75010;DHT22;63564;46.840;18.336;2022-11-20T14:52:17;5.53;96.10
75010;DHT22;63564;46.840;18.336;2022-11-20T14:55:35;5.46;95.82
75010;DHT22;63564;46.840;18.336;2022-11-20T14:58:35;5.39;96.24
75010;DHT22;63564;46.840;18.336;2022-11-20T15:01:36;5.45;96.10
75010;DHT22;63564;46.840;18.336;2022-11-20T15:04:56;5.38;96.08
75010;DHT22;63564;46.840;18.336;2022-11-20T15:08:08;5.42;96.03
75010;DHT22;63564;46.840;18.336;2022-11-20T15:11:20;5.59;95.45
75010;DHT22;63564;46.840;18.336;2022-11-20T15:14:23;5.65;94.80
75010;DHT22;63564;46.840;18.336;2022-11-20T15:17:24;5.71;94.23
75010;DHT22;63564;46.840;18.336;2022-11-20T15:20:28;5.59;94.82
75010;DHT22;63564;46.840;18.336;2022-11-20T15:23:30;5.43;95.21
75010;DHT22;63564;46.840;18.336;2022-11-20T15:26:30;5.43;95.51
75010;DHT22;63564;46.840;18.336;2022-11-20T15:29:31;5.42;95.41
75010;DHT22;63564;46.840;18.336;2022-11-20T15:32:32;5.17;95.92
75010;DHT22;63564;46.840;18.336;2022-11-20T15:35:32;5.11;96.10
75010;DHT22;63564;46.840;18.336;2022-11-20T15:38:32;5.12;95.78
75010;DHT22;63564;46.840;18.336;2022-11-20T15:41:34;5.17;94.95
75010;DHT22;63564;46.840;18.336;2022-11-20T15:44:35;5.00;94.46
75010;DHT22;63564;46.840;18.336;2022-11-20T15:47:35;4.76;95.70
75010;DHT22;63564;46.840;18.336;2022-11-20T15:50:39;4.55;96.61
75010;DHT22;63564;46.840;18.336;2022-11-20T15:53:41;4.42;97.17
75010;DHT22;63564;46.840;18.336;2022-11-20T15:56:41;4.41;97.60
75010;DHT22;63564;46.840;18.336;2022-11-20T15:59:42;4.16;98.24
75010;DHT22;63564;46.840;18.336;2022-11-20T16:02:42;4.28;98.13
75010;DHT22;63564;46.840;18.336;2022-11-20T16:05:43;4.39;96.74
75010;DHT22;63564;46.840;18.336;2022-11-20T16:08:43;4.41;96.44
75010;DHT22;63564;46.840;18.336;2022-11-20T16:11:44;4.49;96.39
75010;DHT22;63564;46.840;18.336;2022-11-20T16:14:44;4.52;96.79
75010;DHT22;63564;46.840;18.336;2022-11-20T16:18:03;4.59;95.86
75010;DHT22;63564;46.840;18.336;2022-11-20T16:21:03;4.46;95.98
75010;DHT22;63564;46.840;18.336;2022-11-20T16:24:05;4.41;96.23
75010;DHT22;63564;46.840;18.336;2022-11-20T16:27:05;4.41;96.31
75010;DHT22;63564;46.840;18.336;2022-11-20T16:30:06;4.41;96.65
75010;DHT22;63564;46.840;18.336;2022-11-20T16:33:15;4.32;97.13
75010;DHT22;63564;46.840;18.336;2022-11-20T16:36:16;4.41;97.53
75010;DHT22;63564;46.840;18.336;2022-11-20T16:39:16;4.41;97.54
75010;DHT22;63564;46.840;18.336;2022-11-20T16:42:16;4.41;97.23
75010;DHT22;63564;46.840;18.336;2022-11-20T16:45:17;4.41;96.82
75010;DHT22;63564;46.840;18.336;2022-11-20T16:48:18;4.39;96.50
75010;DHT22;63564;46.840;18.336;2022-11-20T16:51:18;4.14;97.34
75010;DHT22;63564;46.840;18.336;2022-11-20T16:54:18;4.07;97.69
75010;DHT22;63564;46.840;18.336;2022-11-20T16:57:19;4.18;97.66
75010;DHT22;63564;46.840;18.336;2022-11-20T17:00:19;4.21;97.59
75010;DHT22;63564;46.840;18.336;2022-11-20T17:03:19;4.15;97.61
75010;DHT22;63564;46.840;18.336;2022-11-20T17:06:21;4.16;98.13
75010;DHT22;63564;46.840;18.336;2022-11-20T17:09:22;4.07;97.82
75010;DHT22;63564;46.840;18.336;2022-11-20T17:12:22;3.90;98.03
75010;DHT22;63564;46.840;18.336;2022-11-20T17:15:23;3.91;98.25
75010;DHT22;63564;46.840;18.336;2022-11-20T17:18:23;3.98;98.81
75010;DHT22;63564;46.840;18.336;2022-11-20T17:21:24;3.99;98.15
75010;DHT22;63564;46.840;18.336;2022-11-20T17:24:24;3.94;98.08
75010;DHT22;63564;46.840;18.336;2022-11-20T17:27:24;3.91;98.27
75010;DHT22;63564;46.840;18.336;2022-11-20T17:30:25;3.90;99.06
75010;DHT22;63564;46.840;18.336;2022-11-20T17:33:26;3.98;99.41
75010;DHT22;63564;46.840;18.336;2022-11-20T17:36:27;4.02;99.75
75010;DHT22;63564;46.840;18.336;2022-11-20T17:39:28;3.99;99.77
75010;DHT22;63564;46.840;18.336;2022-11-20T17:42:28;3.81;99.09
75010;DHT22;63564;46.840;18.336;2022-11-20T17:45:29;3.70;98.92
75010;DHT22;63564;46.840;18.336;2022-11-20T17:48:29;3.70;98.29
75010;DHT22;63564;46.840;18.336;2022-11-20T17:51:31;3.53;98.22
75010;DHT22;63564;46.840;18.336;2022-11-20T17:54:32;3.36;97.92
75010;DHT22;63564;46.840;18.336;2022-11-20T17:57:32;2.91;98.95
75010;DHT22;63564;46.840;18.336;2022-11-20T18:00:51;3.08;99.44
75010;DHT22;63564;46.840;18.336;2022-11-20T18:03:51;3.26;99.71
75010;DHT22;63564;46.840;18.336;2022-11-20T18:06:52;3.44;99.62
75010;DHT22;63564;46.840;18.336;2022-11-20T18:09:52;3.44;99.46
75010;DHT22;63564;46.840;18.336;2022-11-20T18:12:52;3.50;99.45
75010;DHT22;63564;46.840;18.336;2022-11-20T18:15:53;3.05;96.66
75010;DHT22;63564;46.840;18.336;2022-11-20T18:18:54;2.68;98.33
75010;DHT22;63564;46.840;18.336;2022-11-20T18:21:55;2.64;98.54
75010;DHT22;63564;46.840;18.336;2022-11-20T18:24:56;2.73;98.45
75010;DHT22;63564;46.840;18.336;2022-11-20T18:27:56;2.74;98.98
75010;DHT22;63564;46.840;18.336;2022-11-20T18:30:56;3.12;99.92
75010;DHT22;63564;46.840;18.336;2022-11-20T18:33:57;3.46;99.99
75010;DHT22;63564;46.840;18.336;2022-11-20T18:36:57;3.66;99.99
75010;DHT22;63564;46.840;18.336;2022-11-20T18:39:57;3.84;99.99
75010;DHT22;63564;46.840;18.336;2022-11-20T18:42:57;3.86;99.99
75010;DHT22;63564;46.840;18.336;2022-11-20T18:46:16;3.86;99.40
75010;DHT22;63564;46.840;18.336;2022-11-20T18:49:18;3.60;99.03
75010;DHT22;63564;46.840;18.336;2022-11-20T18:52:21;3.62;99.58
75010;DHT22;63564;46.840;18.336;2022-11-20T18:55:23;3.77;99.45
75010;DHT22;63564;46.840;18.336;2022-11-20T18:58:26;4.01;99.05
75010;DHT22;63564;46.840;18.336;2022-11-20T19:01:27;4.18;99.46
75010;DHT22;63564;46.840;18.336;2022-11-20T19:04:27;4.21;99.76
75010;DHT22;63564;46.840;18.336;2022-11-20T19:07:29;4.08;96.93
75010;DHT22;63564;46.840;18.336;2022-11-20T19:10:29;3.95;97.21
75010;DHT22;63564;46.840;18.336;2022-11-20T19:13:31;3.93;98.05
75010;DHT22;63564;46.840;18.336;2022-11-20T19:16:32;3.90;98.52
75010;DHT22;63564;46.840;18.336;2022-11-20T19:19:33;3.90;97.91
75010;DHT22;63564;46.840;18.336;2022-11-20T19:22:34;3.73;97.57
75010;DHT22;63564;46.840;18.336;2022-11-20T19:25:34;3.64;97.59
75010;DHT22;63564;46.840;18.336;2022-11-20T19:28:35;3.48;98.08
75010;DHT22;63564;46.840;18.336;2022-11-20T19:31:36;3.22;99.22
75010;DHT22;63564;46.840;18.336;2022-11-20T19:34:36;3.12;99.99
75010;DHT22;63564;46.840;18.336;2022-11-20T19:37:37;3.09;99.99
75010;DHT22;63564;46.840;18.336;2022-11-20T19:40:37;3.25;99.99
75010;DHT22;63564;46.840;18.336;2022-11-20T19:43:38;3.43;99.48
75010;DHT22;63564;46.840;18.336;2022-11-20T19:46:39;3.42;98.77
75010;DHT22;63564;46.840;18.336;2022-11-20T19:49:39;3.25;98.74
75010;DHT22;63564;46.840;18.336;2022-11-20T19:52:40;3.02;99.62
75010;DHT22;63564;46.840;18.336;2022-11-20T19:55:41;3.18;99.33
75010;DHT22;63564;46.840;18.336;2022-11-20T19:58:44;3.18;99.35
75010;DHT22;63564;46.840;18.336;2022-11-20T20:01:44;3.23;99.66
75010;DHT22;63564;46.840;18.336;2022-11-20T20:04:45;3.21;99.14
75010;DHT22;63564;46.840;18.336;2022-11-20T20:07:46;3.15;97.38
75010;DHT22;63564;46.840;18.336;2022-11-20T20:10:46;2.94;97.04
75010;DHT22;63564;46.840;18.336;2022-11-20T20:13:46;2.60;98.47
75010;DHT22;63564;46.840;18.336;2022-11-20T20:16:47;2.61;99.60
75010;DHT22;63564;46.840;18.336;2022-11-20T20:19:47;2.74;98.60
75010;DHT22;63564;46.840;18.336;2022-11-20T20:22:47;2.67;98.71
75010;DHT22;63564;46.840;18.336;2022-11-20T20:25:48;2.57;98.50